Time;durP1;ratioP1;P1;durP2;ratioP2;P2;SDS_P1;SDS_P2;PMS_P1;PMS_P2;Temp;Humidity;BMP_temperature;BMP_pressure;BME280_temperature;BME280_humidity;BME280_pressure;Samples;Min_cycle;Max_cycle;Signal;HPM_P1;HPM_P2
2022/04/12 00:00:23;;;;;;;5.97;3.70;;;14.60;65.50;;;;;;5021488;28;20686;-75
2022/04/12 00:02:48;;;;;;;3.67;3.37;;;14.40;66.30;;;;;;5028613;28;20276;-76
2022/04/12 00:05:14;;;;;;;4.47;3.90;;;14.30;67.10;;;;;;5020863;28;21101;-76
2022/04/12 00:07:41;;;;;;;3.60;3.27;;;14.40;66.80;;;;;;5024540;28;20184;-74
2022/04/12 00:10:08;;;;;;;5.70;3.80;;;14.30;66.80;;;;;;5018627;28;20208;-73
2022/04/12 00:12:35;;;;;;;4.60;3.70;;;14.10;67.80;;;;;;5024766;28;20431;-73
2022/04/12 00:15:02;;;;;;;5.00;3.93;;;14.10;67.20;;;;;;5020880;28;20466;-73
2022/04/12 00:20:12;;;;;;;7.53;3.47;;;14.40;66.30;;;;;;5019317;28;20457;-73
2022/04/12 00:22:39;;;;;;;5.57;3.90;;;14.40;66.40;;;;;;5021422;28;20475;-74
2022/04/12 00:25:07;;;;;;;5.03;3.60;;;14.30;67.30;;;;;;5018524;28;20485;-73
2022/04/12 00:27:33;;;;;;;4.30;3.53;;;14.10;67.60;;;;;;5024870;28;20434;-73
2022/04/12 00:29:59;;;;;;;3.87;3.40;;;14.10;67.40;;;;;;5020902;28;20843;-73
2022/04/12 00:32:24;;;;;;;4.57;4.13;;;14.10;68.60;;;;;;5022282;28;20710;-73
2022/04/12 00:34:50;;;;;;;3.80;3.07;;;14.10;68.30;;;;;;5024708;28;20180;-74
2022/04/12 00:37:16;;;;;;;4.50;3.80;;;14.20;67.40;;;;;;5022058;28;20230;-73
2022/04/12 00:39:41;;;;;;;4.30;3.50;;;14.20;67.70;;;;;;5022957;28;20806;-73
2022/04/12 00:42:07;;;;;;;3.77;3.10;;;14.10;68.10;;;;;;5020542;28;20185;-73
2022/04/12 00:44:33;;;;;;;3.77;3.43;;;13.80;70.10;;;;;;5017725;28;20711;-73
2022/04/12 00:46:58;;;;;;;4.23;3.83;;;14.00;69.20;;;;;;5016851;28;20424;-73
2022/04/12 00:49:24;;;;;;;3.47;3.17;;;14.20;69.00;;;;;;5017546;28;20275;-73
2022/04/12 00:51:51;;;;;;;3.83;3.43;;;14.20;69.50;;;;;;5021416;28;20186;-74
2022/04/12 00:54:19;;;;;;;6.60;3.87;;;14.30;69.80;;;;;;5020639;28;20181;-74
2022/04/12 00:56:46;;;;;;;4.50;3.70;;;14.30;70.00;;;;;;5021106;28;21030;-75
2022/04/12 00:59:12;;;;;;;4.63;3.70;;;14.40;70.30;;;;;;5020179;28;20446;-73
2022/04/12 01:01:37;;;;;;;4.80;4.07;;;14.40;70.30;;;;;;5016317;28;20436;-74
2022/04/12 01:04:03;;;;;;;4.60;4.20;;;14.30;70.50;;;;;;5018992;28;20173;-76
2022/04/12 01:06:28;;;;;;;4.73;3.37;;;14.30;70.90;;;;;;5019621;28;20186;-75
2022/04/12 01:08:54;;;;;;;4.10;3.70;;;14.30;71.20;;;;;;5019721;28;20241;-74
2022/04/12 01:11:20;;;;;;;4.27;3.67;;;14.10;72.30;;;;;;5018580;28;20606;-74
2022/04/12 01:13:46;;;;;;;4.33;3.93;;;14.20;72.00;;;;;;5017927;28;20194;-75
2022/04/12 01:16:11;;;;;;;4.67;3.80;;;14.00;72.50;;;;;;5022102;28;21207;-74
2022/04/12 01:18:38;;;;;;;5.97;3.73;;;14.10;72.00;;;;;;5020823;28;20272;-74
2022/04/12 01:21:04;;;;;;;4.77;3.80;;;14.20;71.10;;;;;;5020610;28;20204;-74
2022/04/12 01:24:02;;;;;;;4.60;4.20;;;14.20;70.80;;;;;;5011888;28;20435;-72
2022/04/12 01:26:28;;;;;;;3.70;3.33;;;14.20;71.10;;;;;;5018126;28;20432;-75
2022/04/12 01:28:53;;;;;;;4.33;3.70;;;14.20;71.10;;;;;;5018687;28;21045;-74
2022/04/12 01:31:19;;;;;;;7.13;3.97;;;14.10;71.10;;;;;;5021688;28;20215;-74
2022/04/12 01:33:45;;;;;;;4.73;4.30;;;14.00;71.60;;;;;;5019649;28;20669;-76
2022/04/12 01:36:10;;;;;;;4.87;3.90;;;13.70;72.90;;;;;;5021699;28;20307;-75
2022/04/12 01:38:36;;;;;;;5.13;4.07;;;13.80;72.70;;;;;;5018050;28;20193;-75
2022/04/12 01:41:02;;;;;;;6.10;4.47;;;13.70;73.00;;;;;;5019177;28;20458;-76
2022/04/12 01:43:28;;;;;;;5.10;4.60;;;13.50;73.30;;;;;;5020153;28;20230;-75
2022/04/12 01:45:54;;;;;;;5.00;4.00;;;13.40;74.60;;;;;;5020839;28;20435;-75
2022/04/12 01:48:20;;;;;;;4.60;4.13;;;13.30;75.10;;;;;;5019274;28;20435;-75
2022/04/12 01:50:45;;;;;;;5.47;3.73;;;13.40;75.30;;;;;;5016813;28;20235;-75
2022/04/12 01:53:11;;;;;;;5.00;4.40;;;13.10;75.60;;;;;;5017867;28;20223;-75
2022/04/12 01:55:36;;;;;;;4.17;3.60;;;13.10;76.60;;;;;;5017861;28;20219;-74
2022/04/12 01:58:02;;;;;;;4.50;4.03;;;13.30;76.10;;;;;;5018836;28;20262;-76
2022/04/12 02:00:28;;;;;;;5.10;4.30;;;12.90;78.20;;;;;;5020927;28;20209;-76
2022/04/12 02:02:53;;;;;;;5.13;4.00;;;13.10;77.80;;;;;;5018687;28;20189;-75
2022/04/12 02:05:20;;;;;;;6.70;4.50;;;13.20;77.20;;;;;;5018578;28;20238;-74
2022/04/12 02:07:45;;;;;;;5.17;4.33;;;12.80;78.00;;;;;;5018193;28;20177;-74
2022/04/12 02:10:12;;;;;;;7.23;4.77;;;12.80;79.10;;;;;;5014339;28;20469;-74
2022/04/12 02:12:38;;;;;;;5.03;4.00;;;12.80;79.00;;;;;;5019499;28;20181;-73
2022/04/12 02:15:04;;;;;;;10.50;4.30;;;12.90;78.80;;;;;;5018334;28;20471;-76
2022/04/12 02:17:30;;;;;;;5.33;4.57;;;12.70;79.50;;;;;;5018540;28;20169;-75
2022/04/12 02:19:56;;;;;;;4.47;3.57;;;12.60;79.80;;;;;;5017835;28;20442;-75
2022/04/12 02:22:22;;;;;;;5.70;3.90;;;12.50;81.00;;;;;;5017797;28;20192;-75
2022/04/12 02:24:47;;;;;;;4.80;4.40;;;12.60;81.40;;;;;;5015378;28;20203;-75
2022/04/12 02:27:13;;;;;;;4.53;3.63;;;12.60;81.00;;;;;;5016584;28;20711;-78
2022/04/12 02:29:39;;;;;;;5.30;4.00;;;12.50;82.10;;;;;;5016478;28;20546;-75
2022/04/12 02:32:06;;;;;;;4.60;4.13;;;12.70;82.00;;;;;;5016895;28;20188;-78
2022/04/12 02:34:32;;;;;;;4.20;3.77;;;12.50;82.50;;;;;;5017677;28;20185;-74
2022/04/12 02:36:58;;;;;;;6.93;4.43;;;12.60;83.00;;;;;;5014827;28;20468;-76
2022/04/12 02:39:24;;;;;;;6.97;4.47;;;12.70;82.90;;;;;;5017801;28;20458;-75
2022/04/12 02:41:49;;;;;;;4.30;3.90;;;12.70;82.70;;;;;;5017874;28;20517;-75
2022/04/12 02:44:15;;;;;;;7.80;3.73;;;12.60;83.20;;;;;;5018441;28;20730;-75
2022/04/12 02:46:41;;;;;;;7.93;4.33;;;12.60;83.80;;;;;;5018135;28;20188;-76
2022/04/12 02:49:07;;;;;;;5.27;4.20;;;12.60;84.00;;;;;;5022765;28;20215;-75
2022/04/12 02:51:33;;;;;;;5.30;3.77;;;12.50;83.60;;;;;;5018220;28;20658;-75
2022/04/12 02:53:58;;;;;;;5.50;4.33;;;12.50;84.70;;;;;;5017066;28;20208;-76
2022/04/12 02:56:24;;;;;;;4.67;4.10;;;12.40;84.20;;;;;;5018930;28;20208;-74
2022/04/12 02:58:50;;;;;;;6.10;4.90;;;12.50;83.90;;;;;;5018388;28;20198;-74
2022/04/12 03:01:16;;;;;;;5.43;3.90;;;12.50;83.80;;;;;;5015725;28;20522;-74
2022/04/12 03:03:41;;;;;;;6.07;4.60;;;12.50;84.30;;;;;;5020338;28;20196;-75
2022/04/12 03:06:07;;;;;;;6.83;4.23;;;12.60;83.90;;;;;;5025613;28;20196;-74
2022/04/12 03:08:33;;;;;;;10.83;3.93;;;12.50;84.80;;;;;;5024473;28;20743;-74
2022/04/12 03:10:59;;;;;;;5.60;4.60;;;12.50;84.50;;;;;;5019656;28;20185;-75
2022/04/12 03:13:25;;;;;;;4.23;3.83;;;12.60;84.10;;;;;;5026554;28;20184;-75
2022/04/12 03:15:50;;;;;;;5.53;4.73;;;12.70;83.80;;;;;;5019373;28;20870;-75
2022/04/12 03:18:17;;;;;;;6.00;4.90;;;12.70;83.80;;;;;;5025528;28;20496;-75
2022/04/12 03:20:43;;;;;;;6.03;4.30;;;12.70;83.80;;;;;;5031703;28;20216;-75
2022/04/12 03:23:09;;;;;;;10.60;4.87;;;12.70;84.10;;;;;;5022439;28;20434;-75
2022/04/12 03:25:35;;;;;;;6.07;4.30;;;12.70;84.00;;;;;;5028757;28;20438;-77
2022/04/12 03:28:01;;;;;;;4.33;3.93;;;12.60;84.70;;;;;;5028867;28;20190;-75
2022/04/12 03:30:27;;;;;;;9.50;5.33;;;12.50;84.90;;;;;;5029161;28;20200;-75
2022/04/12 03:32:52;;;;;;;4.93;4.33;;;12.40;85.30;;;;;;5023658;28;20525;-75
2022/04/12 03:35:19;;;;;;;5.47;4.93;;;12.40;85.00;;;;;;5020268;28;20534;-75
2022/04/12 03:37:45;;;;;;;6.50;4.63;;;12.30;85.80;;;;;;5021218;28;20172;-75
2022/04/12 03:40:11;;;;;;;5.03;4.53;;;12.20;87.80;;;;;;5020846;28;20451;-74
2022/04/12 03:42:37;;;;;;;5.13;4.60;;;12.30;86.80;;;;;;5020421;28;20176;-74
2022/04/12 03:45:03;;;;;;;6.73;4.73;;;12.00;87.50;;;;;;5022685;28;20436;-75
2022/04/12 03:47:28;;;;;;;7.10;5.10;;;12.00;88.10;;;;;;5017879;28;20188;-75
2022/04/12 03:49:54;;;;;;;8.90;6.20;;;11.80;88.90;;;;;;5020483;28;21030;-74
2022/04/12 03:52:20;;;;;;;7.90;5.60;;;11.90;89.50;;;;;;5026646;28;20176;-73
2022/04/12 03:54:45;;;;;;;9.20;6.50;;;12.20;88.80;;;;;;5018582;28;20196;-73
2022/04/12 03:57:11;;;;;;;7.07;5.70;;;12.40;88.10;;;;;;5026796;28;20212;-74
2022/04/12 03:59:37;;;;;;;9.70;5.83;;;12.30;88.90;;;;;;5021782;28;20234;-75
2022/04/12 04:02:02;;;;;;;8.40;6.03;;;12.40;88.40;;;;;;5019959;28;20221;-74
2022/04/12 04:04:28;;;;;;;7.13;5.80;;;12.50;88.50;;;;;;5038485;28;20245;-74
2022/04/12 04:06:54;;;;;;;8.40;5.67;;;12.30;89.20;;;;;;5020466;28;20200;-74
2022/04/12 04:09:19;;;;;;;10.93;6.13;;;12.20;90.40;;;;;;5024427;28;20269;-74
2022/04/12 04:11:45;;;;;;;7.13;5.30;;;12.40;90.60;;;;;;5020380;28;20185;-74
2022/04/12 04:14:12;;;;;;;6.93;4.97;;;12.50;90.50;;;;;;5021857;28;20215;-74
2022/04/12 04:16:38;;;;;;;7.90;5.47;;;12.10;91.20;;;;;;5024098;28;20196;-74
2022/04/12 04:19:04;;;;;;;7.17;5.97;;;12.00;92.00;;;;;;5020585;28;20470;-75
2022/04/12 04:21:30;;;;;;;7.00;5.30;;;11.90;92.50;;;;;;5022009;28;20179;-75
2022/04/12 04:23:56;;;;;;;7.93;5.63;;;12.10;92.40;;;;;;5018609;28;20447;-74
2022/04/12 04:26:21;;;;;;;8.00;5.00;;;11.90;93.50;;;;;;5020737;28;20199;-74
2022/04/12 04:28:49;;;;;;;7.10;5.40;;;11.50;93.80;;;;;;5019598;28;20208;-74
2022/04/12 04:31:15;;;;;;;7.10;5.50;;;11.30;95.40;;;;;;5019860;28;20407;-74
2022/04/12 04:33:40;;;;;;;8.23;5.67;;;11.00;96.30;;;;;;5020925;28;20498;-74
2022/04/12 04:36:06;;;;;;;6.33;5.60;;;10.70;97.60;;;;;;5018768;28;20992;-75
2022/04/12 04:38:32;;;;;;;6.90;6.20;;;10.50;99.60;;;;;;5018924;28;20220;-74
2022/04/12 04:40:58;;;;;;;8.23;5.90;;;10.60;99.90;;;;;;5017874;28;20439;-73
2022/04/12 04:43:23;;;;;;;6.43;5.77;;;10.60;99.90;;;;;;5020340;28;20270;-75
2022/04/12 04:45:49;;;;;;;7.30;5.57;;;10.50;99.90;;;;;;5019838;28;20184;-75
2022/04/12 04:48:15;;;;;;;7.00;5.70;;;10.80;99.90;;;;;;5019713;28;20173;-75
2022/04/12 04:50:40;;;;;;;10.33;5.87;;;10.70;99.90;;;;;;5019141;28;20580;-75
2022/04/12 04:53:09;;;;;;;7.70;6.20;;;10.90;99.90;;;;;;5019041;28;20192;-75
2022/04/12 04:55:36;;;;;;;6.50;5.80;;;11.00;99.90;;;;;;5020635;28;20196;-73
2022/04/12 04:58:03;;;;;;;7.00;5.30;;;11.10;99.90;;;;;;5018504;28;20431;-75
2022/04/12 05:00:31;;;;;;;8.40;7.10;;;11.10;99.90;;;;;;5020153;28;20470;-74
2022/04/12 05:02:58;;;;;;;10.73;6.60;;;10.90;99.90;;;;;;5020631;28;20434;-74
2022/04/12 05:05:25;;;;;;;7.97;5.67;;;10.60;99.90;;;;;;5017906;28;20463;-76
2022/04/12 05:07:53;;;;;;;8.87;5.60;;;10.30;99.90;;;;;;5019054;28;20432;-74
2022/04/12 05:10:25;;;;;;;5.67;4.50;;;10.10;99.90;;;;;;5020775;28;20505;-74
2022/04/12 05:12:50;;;;;;;5.90;5.30;;;10.40;99.90;;;;;;5020524;28;20518;-75
2022/04/12 05:15:16;;;;;;;5.40;4.90;;;10.50;99.90;;;;;;5023608;28;20573;-75
2022/04/12 05:17:49;;;;;;;5.13;4.53;;;10.40;99.90;;;;;;5023171;28;20189;-75
2022/04/12 05:20:14;;;;;;;7.60;5.20;;;10.60;99.90;;;;;;5022551;28;20467;-76
2022/04/12 05:22:40;;;;;;;5.80;5.20;;;10.80;99.90;;;;;;5019147;28;20458;-75
2022/04/12 05:25:06;;;;;;;7.97;5.17;;;11.10;99.90;;;;;;5019894;28;20180;-75
2022/04/12 05:27:33;;;;;;;6.03;5.10;;;11.20;99.90;;;;;;5022312;28;20184;-74
2022/04/12 05:30:03;;;;;;;7.57;5.83;;;11.30;99.90;;;;;;5019248;28;20448;-75
2022/04/12 05:32:29;;;;;;;6.50;5.87;;;11.30;99.90;;;;;;5020504;28;21379;-75
2022/04/12 05:34:54;;;;;;;8.53;7.33;;;11.20;99.90;;;;;;5012843;28;20427;-75
2022/04/12 05:37:20;;;;;;;6.90;6.07;;;11.20;99.90;;;;;;5020472;28;20195;-75
2022/04/12 05:39:46;;;;;;;7.60;6.13;;;10.70;99.90;;;;;;5019614;28;20201;-74
2022/04/12 05:42:11;;;;;;;6.40;5.00;;;10.70;99.90;;;;;;5017418;28;20176;-74
2022/04/12 05:44:37;;;;;;;10.30;8.90;;;11.10;99.90;;;;;;5019090;28;20306;-74
2022/04/12 05:47:03;;;;;;;9.10;6.67;;;11.40;99.90;;;;;;5011481;28;20189;-74
2022/04/12 05:49:30;;;;;;;6.77;6.07;;;11.50;99.90;;;;;;5018688;28;20224;-75
2022/04/12 05:51:56;;;;;;;9.93;6.10;;;11.30;99.90;;;;;;5018167;28;20436;-76
2022/04/12 05:54:22;;;;;;;7.97;5.90;;;11.30;99.90;;;;;;5016941;28;20428;-74
2022/04/12 05:56:49;;;;;;;9.00;6.47;;;11.50;99.90;;;;;;5020788;28;20569;-75
2022/04/12 05:59:15;;;;;;;7.83;6.17;;;11.40;99.90;;;;;;5018090;28;20451;-75
2022/04/12 06:01:40;;;;;;;6.80;6.10;;;11.20;99.90;;;;;;5018308;28;20435;-76
2022/04/12 06:04:06;;;;;;;6.83;5.57;;;11.30;99.90;;;;;;5016936;28;20526;-74
2022/04/12 06:06:33;;;;;;;7.70;5.30;;;11.30;99.90;;;;;;5020045;28;20233;-76
2022/04/12 06:08:59;;;;;;;5.80;5.20;;;11.30;99.90;;;;;;5020373;28;20878;-75
2022/04/12 06:11:25;;;;;;;5.67;5.10;;;10.80;99.90;;;;;;5023918;28;20798;-75
2022/04/12 06:13:51;;;;;;;5.20;4.70;;;11.20;99.90;;;;;;5021564;28;20447;-76
2022/04/12 06:16:16;;;;;;;6.70;5.77;;;11.10;99.90;;;;;;5021927;28;20305;-76
2022/04/12 06:18:42;;;;;;;6.03;5.27;;;11.00;99.90;;;;;;5024001;28;20197;-76
2022/04/12 06:21:07;;;;;;;5.83;5.20;;;11.00;99.90;;;;;;5016754;28;20315;-73
2022/04/12 06:23:33;;;;;;;7.90;5.50;;;11.10;99.90;;;;;;5020888;28;20181;-74
2022/04/12 06:25:59;;;;;;;6.33;5.33;;;11.40;99.90;;;;;;5020313;28;20678;-73
2022/04/12 06:28:24;;;;;;;8.60;5.70;;;11.70;99.90;;;;;;5019771;28;20184;-76
2022/04/12 06:30:51;;;;;;;6.00;5.40;;;11.80;99.90;;;;;;5022147;28;20224;-74
2022/04/12 06:33:16;;;;;;;7.47;6.17;;;11.70;99.90;;;;;;5019369;28;20271;-73
2022/04/12 06:35:42;;;;;;;7.40;5.90;;;11.70;99.90;;;;;;5019920;28;20501;-75
2022/04/12 06:38:09;;;;;;;6.73;5.60;;;11.90;99.90;;;;;;5017917;28;20650;-74
2022/04/12 06:40:35;;;;;;;9.10;5.97;;;12.10;99.90;;;;;;5018761;28;20278;-75
2022/04/12 06:43:01;;;;;;;8.33;5.77;;;12.30;99.90;;;;;;5020264;28;20423;-74
2022/04/12 06:45:26;;;;;;;7.53;6.73;;;12.40;99.90;;;;;;5019155;28;20438;-74
2022/04/12 06:47:54;;;;;;;7.80;6.13;;;12.50;99.90;;;;;;5019945;28;20192;-74
2022/04/12 06:50:20;;;;;;;7.87;7.07;;;12.60;99.90;;;;;;5016637;28;20204;-75
2022/04/12 06:52:45;;;;;;;7.57;6.30;;;12.70;99.90;;;;;;5020599;28;20441;-75
2022/04/12 06:55:11;;;;;;;8.40;7.50;;;12.80;99.90;;;;;;5017369;28;20268;-75
2022/04/12 06:57:37;;;;;;;10.60;7.07;;;12.80;99.90;;;;;;5017352;28;20199;-75
2022/04/12 07:00:07;;;;;;;8.10;6.70;;;12.70;99.90;;;;;;5022583;28;20231;-75
2022/04/12 07:02:34;;;;;;;8.03;7.17;;;12.80;99.90;;;;;;5025696;28;21026;-75
2022/04/12 07:05:00;;;;;;;8.13;6.77;;;12.90;99.90;;;;;;5026490;28;20428;-75
2022/04/12 07:07:25;;;;;;;7.07;6.37;;;12.90;99.90;;;;;;5025307;28;20438;-75
2022/04/12 07:09:51;;;;;;;9.03;7.60;;;13.00;99.90;;;;;;5024088;28;20443;-73
2022/04/12 07:12:16;;;;;;;6.90;6.30;;;12.90;99.90;;;;;;5022639;28;20261;-75
2022/04/12 07:14:51;;;;;;;9.40;5.63;;;12.90;99.90;;;;;;5023219;28;20181;-75
2022/04/12 07:17:17;;;;;;;11.73;6.10;;;12.90;99.90;;;;;;5025655;28;20314;-75
2022/04/12 07:19:43;;;;;;;8.90;7.23;;;13.10;99.90;;;;;;5023181;28;20478;-75
2022/04/12 07:22:09;;;;;;;9.33;6.00;;;13.20;99.90;;;;;;5021775;28;20247;-75
2022/04/12 07:24:35;;;;;;;6.03;5.43;;;13.30;99.90;;;;;;5024789;28;20515;-76
2022/04/12 07:27:01;;;;;;;8.20;5.93;;;13.50;99.90;;;;;;5022192;28;20193;-74
2022/04/12 07:29:27;;;;;;;7.27;6.03;;;13.40;99.90;;;;;;5023772;28;20498;-75
2022/04/12 07:31:53;;;;;;;6.27;5.50;;;13.50;99.90;;;;;;5022690;28;20185;-75
2022/04/12 07:34:19;;;;;;;7.03;5.17;;;13.60;99.90;;;;;;5026389;28;20558;-75
2022/04/12 07:36:47;;;;;;;6.43;5.50;;;13.70;99.90;;;;;;5022013;28;20196;-74
2022/04/12 07:39:16;;;;;;;8.03;5.60;;;13.80;99.90;;;;;;5026683;28;20439;-75
2022/04/12 07:41:42;;;;;;;10.00;5.20;;;13.90;99.90;;;;;;5032409;28;20454;-74
2022/04/12 07:44:07;;;;;;;7.13;5.70;;;13.70;99.90;;;;;;5024632;28;20423;-75
2022/04/12 07:46:33;;;;;;;8.10;5.70;;;13.80;99.90;;;;;;5018345;28;20435;-75
2022/04/12 07:48:59;;;;;;;6.30;5.70;;;13.90;99.90;;;;;;5021775;28;20204;-76
2022/04/12 07:51:24;;;;;;;9.77;6.53;;;13.70;99.90;;;;;;5027980;28;20180;-75
2022/04/12 07:53:50;;;;;;;5.77;5.27;;;13.80;99.90;;;;;;5023088;28;20189;-73
2022/04/12 07:56:16;;;;;;;8.40;4.97;;;14.00;99.90;;;;;;5022348;28;20311;-75
2022/04/12 07:58:42;;;;;;;8.47;6.10;;;14.10;99.40;;;;;;5025373;28;20651;-75
2022/04/12 08:01:08;;;;;;;8.00;5.30;;;14.30;99.20;;;;;;5028390;28;20485;-75
2022/04/12 08:03:34;;;;;;;6.00;5.20;;;14.30;98.80;;;;;;5022427;28;20187;-75
2022/04/12 08:06:00;;;;;;;8.60;5.10;;;14.30;98.80;;;;;;5024449;28;20717;-75
2022/04/12 08:08:26;;;;;;;6.63;5.17;;;14.30;98.60;;;;;;5025345;28;20419;-75
2022/04/12 08:10:51;;;;;;;6.20;4.53;;;14.40;98.20;;;;;;5021407;28;20257;-75
2022/04/12 08:13:17;;;;;;;10.47;5.60;;;14.60;98.00;;;;;;5023170;28;20614;-75
2022/04/12 08:15:43;;;;;;;6.90;6.13;;;14.60;98.20;;;;;;5025689;28;20208;-75
2022/04/12 08:18:09;;;;;;;5.80;5.20;;;14.50;98.90;;;;;;5026149;28;20192;-75
2022/04/12 08:20:34;;;;;;;6.10;5.30;;;14.60;98.60;;;;;;5021215;28;20224;-75
2022/04/12 08:23:02;;;;;;;8.83;5.10;;;14.70;97.90;;;;;;5024513;28;20440;-75
2022/04/12 08:25:28;;;;;;;6.03;4.80;;;14.70;98.40;;;;;;5020331;28;20271;-75
2022/04/12 08:27:55;;;;;;;6.63;4.97;;;14.70;98.40;;;;;;5019199;28;21457;-75
2022/04/12 08:30:21;;;;;;;6.53;5.20;;;14.80;97.80;;;;;;5022841;28;20486;-74
2022/04/12 08:32:46;;;;;;;7.83;4.60;;;14.90;96.90;;;;;;5013125;28;20468;-74
2022/04/12 08:35:12;;;;;;;6.80;4.70;;;15.10;96.80;;;;;;5020412;28;20655;-74
2022/04/12 08:37:38;;;;;;;5.30;4.40;;;14.90;97.00;;;;;;5020914;28;20189;-74
2022/04/12 08:40:04;;;;;;;9.23;5.13;;;15.00;97.20;;;;;;5022230;28;20453;-74
2022/04/12 08:42:31;;;;;;;6.20;5.07;;;15.30;96.60;;;;;;5019748;28;20242;-75
2022/04/12 08:44:57;;;;;;;7.23;4.13;;;15.40;96.40;;;;;;5020414;28;20432;-74
2022/04/12 08:47:24;;;;;;;6.10;4.30;;;15.50;96.40;;;;;;5022980;28;20418;-74
2022/04/12 08:49:50;;;;;;;5.70;4.07;;;15.50;96.70;;;;;;5024282;28;20454;-73
2022/04/12 08:52:16;;;;;;;7.23;4.33;;;15.50;96.10;;;;;;5021974;28;20419;-74
2022/04/12 08:54:43;;;;;;;4.03;3.40;;;15.50;96.60;;;;;;5018657;28;20438;-74
2022/04/12 08:57:09;;;;;;;12.77;4.73;;;15.80;95.40;;;;;;5021749;28;20213;-74
2022/04/12 08:59:36;;;;;;;6.90;4.10;;;15.90;95.40;;;;;;5017717;28;20815;-75
2022/04/12 09:02:02;;;;;;;5.90;4.13;;;16.00;95.00;;;;;;5023289;28;20455;-74
2022/04/12 09:04:28;;;;;;;5.13;4.30;;;16.00;95.30;;;;;;5024824;28;20853;-74
2022/04/12 09:06:58;;;;;;;4.30;3.90;;;16.00;94.80;;;;;;5020996;28;20291;-73
2022/04/12 09:09:29;;;;;;;6.60;4.50;;;16.10;94.80;;;;;;5022566;28;20212;-75
2022/04/12 09:12:12;;;;;;;7.33;4.60;;;16.30;95.00;;;;;;5022853;28;20513;-73
2022/04/12 09:14:39;;;;;;;5.93;3.77;;;16.40;95.10;;;;;;5025050;28;21125;-73
2022/04/12 09:17:15;;;;;;;7.87;5.03;;;16.40;94.80;;;;;;5024549;28;20478;-73
2022/04/12 09:19:51;;;;;;;6.33;4.60;;;16.50;94.70;;;;;;5022913;28;20531;-74
2022/04/12 09:22:21;;;;;;;6.70;4.80;;;16.50;95.30;;;;;;5018453;28;20453;-74
2022/04/12 09:24:52;;;;;;;8.50;6.60;;;16.70;95.00;;;;;;5021374;28;20435;-74
2022/04/12 09:27:24;;;;;;;13.63;9.83;;;16.70;94.80;;;;;;5027302;28;20982;-74
2022/04/12 09:29:50;;;;;;;5.30;3.93;;;16.80;94.70;;;;;;5021881;28;20446;-73
2022/04/12 09:32:23;;;;;;;6.47;4.40;;;16.90;93.70;;;;;;5019752;28;20423;-74
2022/04/12 09:34:50;;;;;;;6.20;4.17;;;17.00;93.90;;;;;;5021456;28;20423;-74
2022/04/12 09:37:26;;;;;;;5.40;3.77;;;17.10;93.60;;;;;;5018876;28;20469;-74
2022/04/12 09:40:02;;;;;;;4.47;3.80;;;17.20;93.00;;;;;;5017165;28;20633;-74
2022/04/12 09:42:48;;;;;;;6.20;3.67;;;17.20;93.60;;;;;;5021781;28;20477;-74
2022/04/12 09:45:25;;;;;;;4.17;3.50;;;17.20;93.30;;;;;;5021533;28;20429;-74
2022/04/12 09:47:58;;;;;;;4.60;4.20;;;17.30;93.30;;;;;;5017669;28;20522;-74
2022/04/12 09:50:26;;;;;;;4.67;3.80;;;17.20;93.50;;;;;;5017806;28;20465;-74
2022/04/12 09:52:57;;;;;;;5.43;4.23;;;17.20;93.50;;;;;;5024456;28;20436;-74
2022/04/12 09:55:34;;;;;;;4.67;3.23;;;17.10;93.50;;;;;;5021187;28;20472;-74
2022/04/12 09:58:08;;;;;;;4.90;3.67;;;17.20;93.10;;;;;;5017681;28;20515;-74
2022/04/12 10:00:35;;;;;;;6.83;3.70;;;17.30;93.00;;;;;;5021115;28;20827;-74
2022/04/12 10:03:03;;;;;;;4.13;3.50;;;17.40;93.00;;;;;;5022001;28;20516;-74
2022/04/12 10:05:29;;;;;;;3.90;3.60;;;17.50;92.60;;;;;;5020565;28;20438;-74
2022/04/12 10:08:00;;;;;;;4.07;3.67;;;17.60;92.60;;;;;;5022776;28;20433;-73
2022/04/12 10:10:27;;;;;;;4.20;3.70;;;17.60;92.70;;;;;;5018661;28;20535;-73
2022/04/12 10:12:54;;;;;;;5.57;3.70;;;17.60;93.10;;;;;;5022663;28;20940;-75
2022/04/12 10:15:21;;;;;;;6.30;4.03;;;17.70;92.70;;;;;;5022877;28;21032;-75
2022/04/12 10:17:51;;;;;;;4.63;3.70;;;17.80;92.90;;;;;;5023205;28;20437;-75
2022/04/12 10:20:18;;;;;;;7.30;4.20;;;17.90;92.50;;;;;;5023358;28;20494;-75
2022/04/12 10:22:45;;;;;;;6.80;3.87;;;18.00;92.80;;;;;;5018679;28;20438;-74
2022/04/12 10:25:18;;;;;;;5.03;3.63;;;18.00;93.00;;;;;;5020727;28;20458;-73
2022/04/12 10:27:46;;;;;;;5.83;3.93;;;18.10;93.00;;;;;;5020815;28;20434;-73
2022/04/12 10:30:17;;;;;;;3.90;3.50;;;18.10;93.20;;;;;;5008181;28;20510;-74
2022/04/12 10:33:17;;;;;;;5.53;3.67;;;18.00;93.10;;;;;;5020931;28;20443;-74
2022/04/12 10:35:42;;;;;;;6.27;4.13;;;18.20;93.40;;;;;;5017002;28;20829;-73
2022/04/12 10:38:09;;;;;;;7.30;4.27;;;18.30;93.20;;;;;;5019206;28;20423;-73
2022/04/12 10:40:35;;;;;;;6.27;3.93;;;18.30;93.20;;;;;;5020026;28;20196;-73
2022/04/12 10:43:04;;;;;;;6.20;3.93;;;18.30;93.40;;;;;;5020164;28;20420;-73
2022/04/12 10:45:32;;;;;;;4.33;3.93;;;18.30;93.70;;;;;;5019612;28;20435;-72
2022/04/12 10:48:01;;;;;;;4.03;3.63;;;18.50;93.10;;;;;;5014466;28;20423;-73
2022/04/12 10:50:27;;;;;;;4.10;3.43;;;18.60;93.10;;;;;;5021924;28;20508;-73
2022/04/12 10:52:53;;;;;;;5.80;4.53;;;18.70;93.10;;;;;;5025074;28;20431;-74
2022/04/12 10:55:25;;;;;;;5.77;3.80;;;18.70;93.30;;;;;;5019035;28;20180;-73
2022/04/12 10:57:53;;;;;;;4.90;4.07;;;18.80;92.70;;;;;;5019299;28;20690;-72
2022/04/12 11:00:22;;;;;;;5.60;4.13;;;19.00;92.50;;;;;;5019349;28;20454;-73
2022/04/12 11:02:57;;;;;;;9.23;4.03;;;19.00;92.80;;;;;;5016249;28;20443;-74
2022/04/12 11:05:39;;;;;;;5.60;4.07;;;19.10;92.80;;;;;;5017613;28;20423;-73
2022/04/12 11:08:14;;;;;;;5.60;3.50;;;19.10;92.80;;;;;;5021485;28;20465;-73
2022/04/12 11:11:00;;;;;;;4.43;3.63;;;19.20;92.60;;;;;;5016981;28;20505;-74
2022/04/12 11:13:34;;;;;;;3.90;3.60;;;19.30;92.90;;;;;;5015482;28;20431;-73
2022/04/12 11:16:06;;;;;;;10.73;4.00;;;19.40;92.50;;;;;;5018089;28;20508;-74
2022/04/12 11:19:01;;;;;;;5.10;3.70;;;19.60;92.70;;;;;;5013166;28;20454;-73
2022/04/12 11:21:56;;;;;;;4.20;3.70;;;19.70;92.00;;;;;;5006334;28;20438;-74
2022/04/12 11:24:23;;;;;;;8.03;3.90;;;19.80;91.80;;;;;;5020834;28;20437;-73
2022/04/12 11:27:05;;;;;;;4.67;3.90;;;19.90;91.60;;;;;;5017153;28;20940;-73
2022/04/12 11:29:32;;;;;;;4.10;3.53;;;20.00;91.40;;;;;;5019065;28;20446;-74
2022/04/12 11:31:58;;;;;;;6.03;3.63;;;20.10;91.50;;;;;;5020517;28;20782;-74
2022/04/12 11:34:26;;;;;;;3.83;3.53;;;20.20;91.50;;;;;;5019055;28;20953;-74
2022/04/12 11:36:59;;;;;;;7.13;3.47;;;20.40;91.00;;;;;;5016489;28;20475;-74
2022/04/12 11:39:30;;;;;;;8.10;3.60;;;20.50;90.80;;;;;;5021914;28;20454;-74
2022/04/12 11:42:00;;;;;;;3.70;3.40;;;20.50;90.40;;;;;;5018249;28;20428;-74
2022/04/12 11:44:27;;;;;;;4.10;3.70;;;20.70;90.10;;;;;;5019595;28;20518;-74
2022/04/12 11:47:01;;;;;;;4.03;3.63;;;20.80;89.10;;;;;;5021925;28;20430;-74
2022/04/12 11:49:38;;;;;;;4.40;3.43;;;21.00;89.30;;;;;;5024952;28;20941;-74
2022/04/12 11:52:12;;;;;;;3.93;3.40;;;21.20;88.20;;;;;;5022589;28;20564;-75
2022/04/12 11:54:40;;;;;;;5.03;3.43;;;21.40;87.90;;;;;;5022132;28;20462;-74
2022/04/12 11:57:10;;;;;;;5.70;4.00;;;21.50;88.40;;;;;;5021874;28;20885;-74
2022/04/12 11:59:44;;;;;;;6.80;3.60;;;21.70;87.70;;;;;;5021926;28;20436;-75
2022/04/12 12:02:11;;;;;;;3.47;3.17;;;21.80;86.40;;;;;;5026063;28;20428;-74
2022/04/12 12:04:43;;;;;;;4.93;3.50;;;22.10;86.90;;;;;;5022552;28;20431;-74
2022/04/12 12:07:09;;;;;;;6.87;3.60;;;22.40;83.90;;;;;;5025731;28;20435;-75
2022/04/12 12:09:35;;;;;;;5.53;3.50;;;22.60;83.40;;;;;;5018333;28;20513;-75
2022/04/12 12:12:06;;;;;;;6.80;3.50;;;23.00;81.60;;;;;;5020333;28;20218;-75
2022/04/12 12:14:32;;;;;;;3.70;3.40;;;23.30;79.80;;;;;;5027918;28;20422;-74
2022/04/12 12:17:09;;;;;;;5.50;3.03;;;23.50;78.20;;;;;;5021237;28;20826;-74
2022/04/12 12:19:38;;;;;;;3.37;3.07;;;24.00;76.50;;;;;;5025015;28;20450;-74
2022/04/12 12:22:09;;;;;;;4.77;3.03;;;24.30;74.00;;;;;;5025586;28;20412;-74
2022/04/12 12:24:49;;;;;;;6.57;3.30;;;24.40;71.50;;;;;;5023048;28;20458;-74
2022/04/12 12:27:30;;;;;;;8.87;3.30;;;24.60;71.00;;;;;;5022768;28;20449;-74
2022/04/12 12:30:14;;;;;;;8.73;3.60;;;25.00;68.90;;;;;;5023355;28;20450;-75
2022/04/12 12:32:42;;;;;;;5.20;3.27;;;25.10;68.40;;;;;;5020497;28;20436;-74
2022/04/12 12:35:12;;;;;;;7.03;3.80;;;25.30;67.70;;;;;;5025961;28;20436;-74
2022/04/12 12:37:39;;;;;;;3.63;3.30;;;25.20;65.80;;;;;;5024389;28;20827;-75
2022/04/12 12:40:17;;;;;;;3.60;3.30;;;25.30;66.20;;;;;;5021762;28;20458;-73
2022/04/12 12:42:43;;;;;;;3.40;3.10;;;25.40;65.10;;;;;;5026029;28;21026;-75
2022/04/12 12:45:14;;;;;;;3.23;2.93;;;25.50;63.30;;;;;;5025044;28;20554;-74
2022/04/12 12:47:41;;;;;;;3.20;2.90;;;25.70;63.10;;;;;;5019007;28;20434;-74
2022/04/12 12:50:12;;;;;;;2.93;2.63;;;25.90;62.40;;;;;;5016078;28;20462;-74